createdAt,value
2018-04-27T00:01:37.414Z,99.90
2018-04-27T00:04:12.737Z,99.90
2018-04-27T00:06:46.674Z,99.90
2018-04-27T00:09:14.940Z,99.90
2018-04-27T00:11:43.785Z,99.90
2018-04-27T00:14:13.784Z,99.90
2018-04-27T00:16:47.401Z,99.90
2018-04-27T00:19:15.862Z,99.90
2018-04-27T00:21:45.698Z,99.90
2018-04-27T00:24:14.733Z,99.90
2018-04-27T00:26:46.074Z,99.90
2018-04-27T00:29:14.149Z,99.90
2018-04-27T00:31:43.017Z,99.90
2018-04-27T00:34:11.156Z,99.90
2018-04-27T00:36:56.644Z,99.90
2018-04-27T00:39:35.278Z,99.90
2018-04-27T00:42:06.730Z,99.90
2018-04-27T00:44:36.757Z,99.90
2018-04-27T00:47:06.591Z,99.90
2018-04-27T00:49:34.702Z,99.90
2018-04-27T00:52:03.567Z,99.90
2018-04-27T00:54:34.327Z,99.90
2018-04-27T00:57:06.722Z,99.90
2018-04-27T00:59:39.588Z,99.90
2018-04-27T01:02:08.445Z,99.90
2018-04-27T01:04:37.513Z,99.90
2018-04-27T01:07:20.569Z,99.90
2018-04-27T01:09:50.569Z,99.90
2018-04-27T01:12:21.442Z,99.90
2018-04-27T01:14:50.465Z,99.90
2018-04-27T01:17:18.557Z,99.90
2018-04-27T01:19:47.634Z,99.90
2018-04-27T01:22:15.733Z,99.90
2018-04-27T01:24:55.954Z,99.90
2018-04-27T01:27:25.057Z,99.90
2018-04-27T01:30:13.827Z,99.90
2018-04-27T01:32:42.881Z,99.90
2018-04-27T01:35:12.685Z,99.90
2018-04-27T01:37:51.393Z,99.90
2018-04-27T01:40:19.493Z,99.90
2018-04-27T01:42:48.322Z,99.90
2018-04-27T01:45:18.365Z,99.90
2018-04-27T01:47:47.324Z,99.90
2018-04-27T01:50:17.162Z,99.90
2018-04-27T01:52:46.014Z,99.90
2018-04-27T01:55:16.601Z,99.90
2018-04-27T01:57:44.689Z,99.90
2018-04-27T02:00:16.511Z,99.90
2018-04-27T02:02:46.472Z,99.90
2018-04-27T02:05:14.757Z,99.90
2018-04-27T02:07:45.034Z,99.90
2018-04-27T02:10:15.042Z,99.90
2018-04-27T02:12:43.900Z,99.90
2018-04-27T02:15:15.104Z,99.90
2018-04-27T02:17:44.104Z,99.90
2018-04-27T02:20:14.022Z,99.90
2018-04-27T02:22:43.079Z,99.90
2018-04-27T02:25:15.162Z,99.90
2018-04-27T02:27:43.235Z,99.90
2018-04-27T02:30:11.333Z,99.90
2018-04-27T02:32:39.412Z,99.90
2018-04-27T02:35:11.546Z,99.90
2018-04-27T02:37:40.600Z,99.90
2018-04-27T02:40:14.946Z,99.90
2018-04-27T02:42:44.992Z,99.90
2018-04-27T02:45:13.847Z,99.90
2018-04-27T02:47:41.920Z,99.90
2018-04-27T02:50:10.010Z,99.90
2018-04-27T02:52:38.982Z,99.90
2018-04-27T02:55:08.815Z,99.90
2018-04-27T02:57:36.885Z,99.90
2018-04-27T03:00:07.746Z,99.90
2018-04-27T03:02:46.652Z,99.90
2018-04-27T03:05:14.730Z,99.90
2018-04-27T03:07:43.818Z,99.90
2018-04-27T03:10:13.963Z,99.90
2018-04-27T03:12:42.036Z,99.90
2018-04-27T03:15:13.661Z,99.90
2018-04-27T03:17:41.825Z,99.90
2018-04-27T03:20:11.665Z,99.90
2018-04-27T03:22:42.706Z,99.90
2018-04-27T03:25:15.573Z,99.90
2018-04-27T03:27:43.666Z,99.90
2018-04-27T03:30:22.737Z,99.90
2018-04-27T03:32:51.573Z,99.90
2018-04-27T03:35:24.524Z,99.90
2018-04-27T03:37:53.599Z,99.90
2018-04-27T03:40:21.703Z,99.90
2018-04-27T03:42:50.773Z,99.90
2018-04-27T03:45:20.846Z,99.90
2018-04-27T03:47:50.841Z,99.90
2018-04-27T03:50:22.196Z,99.90
2018-04-27T03:52:51.371Z,99.90
2018-04-27T03:55:26.177Z,99.90
2018-04-27T03:57:54.253Z,99.90
2018-04-27T04:00:38.972Z,99.90
2018-04-27T04:03:18.786Z,99.90
2018-04-27T04:05:46.889Z,99.90
2018-04-27T04:08:15.914Z,99.90
2018-04-27T04:10:45.034Z,99.90
2018-04-27T04:13:17.885Z,99.90
2018-04-27T04:15:45.971Z,99.90
2018-04-27T04:18:14.071Z,99.90
2018-04-27T04:20:42.122Z,99.90
2018-04-27T04:23:10.196Z,99.90
2018-04-27T04:25:44.046Z,99.90
2018-04-27T04:28:12.173Z,99.90
2018-04-27T04:30:42.038Z,99.90
2018-04-27T04:33:12.211Z,99.90
2018-04-27T04:35:41.093Z,99.90
2018-04-27T04:38:09.180Z,99.90
2018-04-27T04:40:39.375Z,99.90
2018-04-27T04:43:13.349Z,99.90
2018-04-27T04:45:47.292Z,99.90
2018-04-27T04:48:18.945Z,99.90
2018-04-27T04:50:48.842Z,99.90
2018-04-27T04:53:18.237Z,99.90
2018-04-27T04:55:49.052Z,99.90
2018-04-27T04:58:18.063Z,99.90
2018-04-27T05:01:03.158Z,99.90
2018-04-27T05:03:37.067Z,99.90
2018-04-27T05:06:12.804Z,99.90
2018-04-27T05:08:41.813Z,99.90
2018-04-27T05:11:10.023Z,99.90
2018-04-27T05:13:38.089Z,99.90
2018-04-27T05:16:06.201Z,99.90
2018-04-27T05:18:41.763Z,99.90
2018-04-27T05:21:09.852Z,99.90
2018-04-27T05:23:44.333Z,99.90
2018-04-27T05:26:23.085Z,99.90
2018-04-27T05:28:51.169Z,99.90
2018-04-27T05:31:23.949Z,99.90
2018-04-27T05:33:53.207Z,99.90
2018-04-27T05:36:22.352Z,99.90
2018-04-27T05:38:51.263Z,99.90
2018-04-27T05:41:22.930Z,99.90
2018-04-27T05:43:53.552Z,99.90
2018-04-27T05:46:24.315Z,99.90
2018-04-27T05:48:52.474Z,99.90
2018-04-27T05:51:26.502Z,99.90
2018-04-27T05:53:54.577Z,99.90
2018-04-27T05:56:22.731Z,99.90
2018-04-27T05:58:50.823Z,99.90
2018-04-27T06:01:23.611Z,99.90
2018-04-27T06:04:04.147Z,99.90
2018-04-27T06:06:38.713Z,99.90
2018-04-27T06:09:06.979Z,99.90
2018-04-27T06:11:36.014Z,99.90
2018-04-27T06:14:08.506Z,99.90
2018-04-27T06:16:45.148Z,99.90
2018-04-27T06:19:13.256Z,99.90
2018-04-27T06:21:45.688Z,99.90
2018-04-27T06:24:17.629Z,99.90
2018-04-27T06:26:45.760Z,99.90
2018-04-27T06:29:17.179Z,99.90
2018-04-27T06:31:47.079Z,99.90
2018-04-27T06:34:18.586Z,99.90
2018-04-27T06:36:47.709Z,99.90
2018-04-27T06:39:17.725Z,99.90
2018-04-27T06:41:54.954Z,99.90
2018-04-27T06:44:23.179Z,99.90
2018-04-27T06:46:51.303Z,99.90
2018-04-27T06:49:20.400Z,99.90
2018-04-27T06:51:52.088Z,99.90
2018-04-27T06:54:24.506Z,99.90
2018-04-27T06:56:55.078Z,99.90
2018-04-27T06:59:26.977Z,99.90
2018-04-27T07:01:56.005Z,99.90
2018-04-27T07:04:28.108Z,99.90
2018-04-27T07:06:57.279Z,99.90
2018-04-27T07:09:25.481Z,99.90
2018-04-27T07:11:59.201Z,99.90
2018-04-27T07:14:31.928Z,99.90
2018-04-27T07:17:00.069Z,99.90
2018-04-27T07:19:38.820Z,99.90
2018-04-27T07:22:14.615Z,99.90
2018-04-27T07:24:46.640Z,99.90
2018-04-27T07:27:14.873Z,99.90
2018-04-27T07:29:42.967Z,99.90
2018-04-27T07:32:15.660Z,99.90
2018-04-27T07:34:44.700Z,99.90
2018-04-27T07:37:13.865Z,99.90
2018-04-27T07:39:56.046Z,99.90
2018-04-27T07:42:28.121Z,99.90
2018-04-27T07:44:58.181Z,99.90
2018-04-27T07:47:27.962Z,99.90
2018-04-27T07:50:02.568Z,99.90
2018-04-27T07:52:31.579Z,99.90
2018-04-27T07:54:59.706Z,99.90
2018-04-27T07:57:27.821Z,99.90
2018-04-27T07:59:57.719Z,99.90
2018-04-27T08:02:38.085Z,99.90
2018-04-27T08:05:06.201Z,99.90
2018-04-27T08:07:37.898Z,99.90
2018-04-27T08:10:07.066Z,99.90
2018-04-27T08:12:36.825Z,99.90
2018-04-27T08:15:04.958Z,99.90
2018-04-27T08:17:33.057Z,99.90
2018-04-27T08:20:03.285Z,99.90
2018-04-27T08:22:31.415Z,99.90
2018-04-27T08:25:00.395Z,99.90
2018-04-27T08:27:31.214Z,99.90
2018-04-27T08:30:01.150Z,99.90
2018-04-27T08:32:31.266Z,99.90
2018-04-27T08:34:59.509Z,99.90
2018-04-27T08:37:27.718Z,99.90
2018-04-27T08:39:55.797Z,99.90
2018-04-27T08:42:26.642Z,99.90
2018-04-27T08:45:14.264Z,99.90
2018-04-27T08:47:42.418Z,99.90
2018-04-27T08:50:12.494Z,99.90
2018-04-27T08:52:41.537Z,99.90
2018-04-27T08:55:15.187Z,99.90
2018-04-27T08:57:43.294Z,99.90
2018-04-27T09:00:13.329Z,99.90
2018-04-27T09:02:42.472Z,99.90
2018-04-27T09:05:10.518Z,99.90
2018-04-27T09:07:39.519Z,99.90
2018-04-27T09:10:08.588Z,99.90
2018-04-27T09:12:36.696Z,99.90
2018-04-27T09:15:05.565Z,99.90
2018-04-27T09:17:34.662Z,99.90
2018-04-27T09:20:02.791Z,99.90
2018-04-27T09:22:30.962Z,99.90
2018-04-27T09:25:00.026Z,99.90
2018-04-27T09:27:35.305Z,99.90
2018-04-27T09:30:04.382Z,99.90
2018-04-27T09:32:32.477Z,99.90
2018-04-27T09:35:00.560Z,99.90
2018-04-27T09:37:28.666Z,99.90
2018-04-27T09:39:56.761Z,99.90
2018-04-27T09:42:24.858Z,99.90
2018-04-27T09:44:57.697Z,99.90
2018-04-27T09:47:25.830Z,99.90
2018-04-27T09:49:54.791Z,99.90
2018-04-27T09:52:24.795Z,99.90
2018-04-27T09:54:53.797Z,99.90
2018-04-27T09:57:27.122Z,99.90
2018-04-27T10:00:01.208Z,99.90
2018-04-27T10:02:36.441Z,99.90
2018-04-27T10:05:04.910Z,99.90
2018-04-27T10:07:33.023Z,99.90
2018-04-27T10:10:01.909Z,99.90
2018-04-27T10:12:30.015Z,99.90
2018-04-27T10:14:59.184Z,99.90
2018-04-27T10:17:27.375Z,99.90
2018-04-27T10:19:56.443Z,99.90
2018-04-27T10:22:24.563Z,99.90
2018-04-27T10:24:54.728Z,99.90
2018-04-27T10:27:22.859Z,99.90
2018-04-27T10:29:50.961Z,99.90
2018-04-27T10:32:20.275Z,99.90
2018-04-27T10:34:49.394Z,99.90
2018-04-27T10:37:21.770Z,99.90
2018-04-27T10:39:51.523Z,99.90
2018-04-27T10:42:19.677Z,99.90
2018-04-27T10:44:47.819Z,99.90
2018-04-27T10:47:16.727Z,99.00
2018-04-27T10:49:46.798Z,99.00
2018-04-27T10:52:14.905Z,98.80
2018-04-27T10:54:43.047Z,99.40
2018-04-27T10:57:12.260Z,98.60
2018-04-27T10:59:40.392Z,99.00
2018-04-27T11:02:09.843Z,99.40
2018-04-27T11:04:39.621Z,99.40
2018-04-27T11:07:15.119Z,99.30
2018-04-27T11:09:43.284Z,98.70
2018-04-27T11:12:15.855Z,96.00
2018-04-27T11:14:44.022Z,94.30
2018-04-27T11:17:16.905Z,94.50
2018-04-27T11:19:45.109Z,94.70
2018-04-27T11:22:13.278Z,92.70
2018-04-27T11:24:41.360Z,90.90
2018-04-27T11:27:13.798Z,89.70
2018-04-27T11:29:45.173Z,90.00
2018-04-27T11:32:33.760Z,90.20
2018-04-27T11:35:02.764Z,89.10
2018-04-27T11:37:31.390Z,88.20
2018-04-27T11:40:01.399Z,86.50
2018-04-27T11:42:29.507Z,85.70
2018-04-27T11:44:57.614Z,86.60
2018-04-27T11:47:26.691Z,86.00
2018-04-27T11:49:58.577Z,83.70
2018-04-27T11:52:26.656Z,84.20
2018-04-27T11:54:55.676Z,82.90
2018-04-27T11:57:24.908Z,82.60
2018-04-27T11:59:59.979Z,79.60
2018-04-27T12:02:29.812Z,78.80
2018-04-27T12:04:58.936Z,79.50
2018-04-27T12:07:27.017Z,79.00
2018-04-27T12:09:55.264Z,77.80
2018-04-27T12:12:24.728Z,78.80
2018-04-27T12:14:54.752Z,79.40
2018-04-27T12:17:28.974Z,81.40
2018-04-27T12:19:59.159Z,81.60
2018-04-27T12:22:27.253Z,80.70
2018-04-27T12:24:55.383Z,81.40
2018-04-27T12:27:23.525Z,81.50
2018-04-27T12:29:51.908Z,80.60
2018-04-27T12:32:23.398Z,80.60
2018-04-27T12:34:51.532Z,80.20
2018-04-27T12:37:20.498Z,79.70
2018-04-27T12:39:48.595Z,79.00
2018-04-27T12:42:17.795Z,78.40
2018-04-27T12:44:45.928Z,78.90
2018-04-27T12:47:14.786Z,79.10
2018-04-27T12:49:46.390Z,79.00
2018-04-27T12:52:14.481Z,78.70
2018-04-27T12:54:45.658Z,78.20
2018-04-27T12:57:13.711Z,78.80
2018-04-27T12:59:45.293Z,79.20
2018-04-27T13:02:14.165Z,76.30
2018-04-27T13:04:42.266Z,76.30
2018-04-27T13:07:12.333Z,76.20
2018-04-27T13:09:40.459Z,76.70
2018-04-27T13:12:12.432Z,77.70
2018-04-27T13:14:42.678Z,76.80
2018-04-27T13:17:10.768Z,77.00
2018-04-27T13:19:43.843Z,77.40
2018-04-27T13:22:15.809Z,77.00
2018-04-27T13:24:44.166Z,77.30
2018-04-27T13:27:12.257Z,76.80
2018-04-27T13:29:40.344Z,77.20
2018-04-27T13:32:09.404Z,76.20
2018-04-27T13:34:39.388Z,75.10
2018-04-27T13:37:08.433Z,75.80
2018-04-27T13:39:38.633Z,75.30
2018-04-27T13:42:07.383Z,74.70
2018-04-27T13:44:36.805Z,73.90
2018-04-27T13:47:07.480Z,74.50
2018-04-27T13:49:35.546Z,73.80
2018-04-27T13:52:05.453Z,72.90
2018-04-27T13:54:33.563Z,73.00
2018-04-27T13:57:01.666Z,73.80
2018-04-27T13:59:29.817Z,73.30
2018-04-27T14:01:59.979Z,71.80
2018-04-27T14:04:28.172Z,72.60
2018-04-27T14:06:56.918Z,72.50
2018-04-27T14:09:26.043Z,72.60
2018-04-27T14:11:54.972Z,71.80
2018-04-27T14:14:27.288Z,71.20
2018-04-27T14:16:55.512Z,71.20
2018-04-27T14:19:23.657Z,71.50
2018-04-27T14:21:55.430Z,71.30
2018-04-27T14:24:23.698Z,69.90
2018-04-27T14:26:51.857Z,70.10
2018-04-27T14:29:20.011Z,69.80
2018-04-27T14:31:48.123Z,69.50
2018-04-27T14:34:16.215Z,69.60
2018-04-27T14:36:45.323Z,69.30
2018-04-27T14:39:13.465Z,69.20
2018-04-27T14:41:42.579Z,69.10
2018-04-27T14:44:11.002Z,69.20
2018-04-27T14:46:44.704Z,70.00
2018-04-27T14:49:13.419Z,71.20
2018-04-27T14:51:41.578Z,71.70
2018-04-27T14:54:09.781Z,71.40
2018-04-27T14:56:39.711Z,70.40
2018-04-27T14:59:12.794Z,70.40
2018-04-27T15:01:40.992Z,70.50
2018-04-27T15:04:09.206Z,70.50
2018-04-27T15:06:37.660Z,70.40
2018-04-27T15:09:06.121Z,70.60
2018-04-27T15:11:37.533Z,70.20
2018-04-27T15:14:06.692Z,69.70
2018-04-27T15:16:34.945Z,70.50
2018-04-27T15:19:04.591Z,70.80
2018-04-27T15:21:32.670Z,70.60
2018-04-27T15:24:07.771Z,70.40
2018-04-27T15:26:35.970Z,70.30
2018-04-27T15:29:04.090Z,70.70
2018-04-27T15:31:37.180Z,70.90
2018-04-27T15:34:05.987Z,71.30
2018-04-27T15:36:37.590Z,71.70
2018-04-27T15:39:05.720Z,71.50
2018-04-27T15:41:33.839Z,71.40
2018-04-27T15:44:04.577Z,71.30
2018-04-27T15:46:32.680Z,71.80
2018-04-27T15:49:03.049Z,71.80
2018-04-27T15:51:31.932Z,71.60
2018-04-27T15:54:00.060Z,71.30
2018-04-27T15:56:28.156Z,72.10
2018-04-27T15:58:56.266Z,71.30
2018-04-27T16:01:25.218Z,70.40
2018-04-27T16:03:53.265Z,70.40
2018-04-27T16:06:21.923Z,71.10
2018-04-27T16:08:54.041Z,69.80
2018-04-27T16:11:22.206Z,70.10
2018-04-27T16:13:55.853Z,70.80
2018-04-27T16:16:24.047Z,70.30
2018-04-27T16:19:01.253Z,70.00
2018-04-27T16:21:29.340Z,70.00
2018-04-27T16:23:58.353Z,69.70
2018-04-27T16:26:28.627Z,70.10
2018-04-27T16:28:56.791Z,70.10
2018-04-27T16:31:24.917Z,69.50
2018-04-27T16:33:53.064Z,70.30
2018-04-27T16:36:21.146Z,70.70
2018-04-27T16:38:50.001Z,70.70
2018-04-27T16:41:18.876Z,70.70
2018-04-27T16:43:47.181Z,71.40
2018-04-27T16:46:16.214Z,71.80
2018-04-27T16:48:44.335Z,71.40
2018-04-27T16:51:12.480Z,71.30
2018-04-27T16:53:42.410Z,70.60
2018-04-27T16:56:10.630Z,70.60
2018-04-27T16:58:38.846Z,70.70
2018-04-27T17:01:06.941Z,70.80
2018-04-27T17:03:38.462Z,71.80
2018-04-27T17:06:06.514Z,72.20
2018-04-27T17:08:44.668Z,72.10
2018-04-27T17:11:12.758Z,71.80
2018-04-27T17:13:41.870Z,72.20
2018-04-27T17:16:10.188Z,72.30
2018-04-27T17:18:40.241Z,72.30
2018-04-27T17:21:09.892Z,72.80
2018-04-27T17:23:39.959Z,72.60
2018-04-27T17:26:09.796Z,72.40
2018-04-27T17:28:37.954Z,72.40
2018-04-27T17:31:06.032Z,72.00
2018-04-27T17:33:34.171Z,72.50
2018-04-27T17:36:04.369Z,73.10
2018-04-27T17:38:32.460Z,73.20
2018-04-27T17:41:00.679Z,73.60
2018-04-27T17:43:28.761Z,73.40
2018-04-27T17:45:56.826Z,73.50
2018-04-27T17:48:25.955Z,73.80
2018-04-27T17:50:54.083Z,74.40
2018-04-27T17:53:27.343Z,74.90
2018-04-27T17:55:55.351Z,75.30
2018-04-27T17:58:23.514Z,75.60
2018-04-27T18:00:57.697Z,75.50
2018-04-27T18:03:26.320Z,75.70
2018-04-27T18:05:58.500Z,75.90
2018-04-27T18:08:26.625Z,76.20
2018-04-27T18:10:55.620Z,76.90
2018-04-27T18:13:24.728Z,76.80
2018-04-27T18:18:57.377Z,77.70
2018-04-27T18:21:26.246Z,77.80
2018-04-27T18:23:54.330Z,77.80
2018-04-27T18:26:22.421Z,77.20
2018-04-27T18:28:50.514Z,77.50
2018-04-27T18:31:23.531Z,77.50
2018-04-27T18:33:54.485Z,76.60
2018-04-27T18:36:23.513Z,77.60
2018-04-27T18:38:57.368Z,77.40
2018-04-27T18:41:25.474Z,77.60
2018-04-27T18:43:54.323Z,78.30
2018-04-27T18:46:28.089Z,78.20
2018-04-27T18:48:58.969Z,79.20
2018-04-27T18:51:29.014Z,79.40
2018-04-27T18:53:59.118Z,79.40
2018-04-27T18:56:28.187Z,80.00
2018-04-27T18:58:57.037Z,80.50
2018-04-27T19:01:26.090Z,79.30
2018-04-27T19:03:54.205Z,79.60
2018-04-27T19:20:00.720Z,87.00
2018-04-27T19:22:36.433Z,89.20
2018-04-27T19:25:05.351Z,91.10
2018-04-27T19:27:33.717Z,91.10
2018-04-27T19:30:05.228Z,91.60
2018-04-27T19:32:33.353Z,91.70
2018-04-27T19:35:13.188Z,91.80
2018-04-27T19:37:45.466Z,92.80
2018-04-27T19:40:17.293Z,93.70
2018-04-27T19:42:45.971Z,93.90
2018-04-27T19:45:15.873Z,95.20
2018-04-27T19:47:43.989Z,95.10
2018-04-27T19:50:14.012Z,95.60
2018-04-27T19:52:42.873Z,97.10
2018-04-27T19:55:12.019Z,97.10
2018-04-27T19:57:42.018Z,98.00
2018-04-27T20:00:11.091Z,98.80
2018-04-27T20:02:46.480Z,99.90
2018-04-27T20:05:15.506Z,99.90
2018-04-27T20:10:44.436Z,99.90
2018-04-27T20:13:12.420Z,99.90
2018-04-27T20:15:42.337Z,99.90
2018-04-27T20:18:12.425Z,99.90
2018-04-27T20:20:41.388Z,99.90
2018-04-27T20:23:10.223Z,99.90
2018-04-27T20:25:42.702Z,99.90
2018-04-27T20:28:14.690Z,99.90
2018-04-27T20:30:50.721Z,99.90
2018-04-27T20:33:23.851Z,99.90
2018-04-27T20:38:54.545Z,99.90
2018-04-27T20:41:24.835Z,99.90
2018-04-27T20:43:59.407Z,99.90
2018-04-27T20:46:28.575Z,99.90
2018-04-27T20:48:57.516Z,99.90
2018-04-27T20:51:25.691Z,99.90
2018-04-27T20:54:01.288Z,99.90
2018-04-27T20:56:46.174Z,99.90
2018-04-27T20:59:20.799Z,99.90
2018-04-27T21:01:52.019Z,99.90
2018-04-27T21:04:20.128Z,99.90
2018-04-27T21:06:49.275Z,99.90
2018-04-27T21:09:18.242Z,99.90
2018-04-27T21:11:55.303Z,99.90
2018-04-27T21:14:24.433Z,99.90
2018-04-27T21:16:53.358Z,99.90
2018-04-27T21:19:21.484Z,99.90
2018-04-27T21:21:50.654Z,99.90
2018-04-27T21:24:19.155Z,99.90
2018-04-27T21:26:52.178Z,99.90
2018-04-27T21:29:21.320Z,99.90
2018-04-27T21:31:49.975Z,99.90
2018-04-27T21:34:20.503Z,99.90
2018-04-27T21:39:48.364Z,99.90
2018-04-27T21:42:36.675Z,99.90
2018-04-27T21:45:10.418Z,99.90
2018-04-27T21:47:43.206Z,99.90
2018-04-27T21:50:18.197Z,99.90
2018-04-27T21:52:49.068Z,99.90
2018-04-27T21:55:17.189Z,99.90
2018-04-27T21:57:51.842Z,99.90
2018-04-27T22:00:30.708Z,99.90
2018-04-27T22:03:03.395Z,99.90
2018-04-27T22:05:42.994Z,99.90
2018-04-27T22:08:17.611Z,99.90
2018-04-27T22:10:50.157Z,99.90
2018-04-27T22:13:26.355Z,99.90
2018-04-27T22:15:55.411Z,99.90
2018-04-27T22:18:24.600Z,99.90
2018-04-27T22:20:56.435Z,99.90
2018-04-27T22:23:27.107Z,99.90
2018-04-27T22:26:00.238Z,99.90
2018-04-27T22:28:45.547Z,99.90
2018-04-27T22:31:14.575Z,99.90
2018-04-27T22:33:47.591Z,99.90
2018-04-27T22:36:41.171Z,99.90
2018-04-27T22:42:18.995Z,99.90
2018-04-27T22:44:49.643Z,99.90
2018-04-27T22:47:20.411Z,99.90
2018-04-27T22:49:48.491Z,99.90
2018-04-27T22:52:18.522Z,99.90
2018-04-27T22:54:53.852Z,99.90
2018-04-27T22:57:33.673Z,99.90
2018-04-27T23:00:04.350Z,99.90
2018-04-27T23:02:33.235Z,99.90
2018-04-27T23:05:03.124Z,99.90
2018-04-27T23:07:43.866Z,99.90
2018-04-27T23:10:11.965Z,99.90
2018-04-27T23:12:41.512Z,99.90
2018-04-27T23:15:09.607Z,99.90
2018-04-27T23:17:38.709Z,99.90
2018-04-27T23:20:11.219Z,99.90
2018-04-27T23:22:40.317Z,99.90
2018-04-27T23:25:15.056Z,99.90
2018-04-27T23:27:44.178Z,99.90
2018-04-27T23:30:13.245Z,99.90
2018-04-27T23:32:46.659Z,99.90
2018-04-27T23:35:15.707Z,99.90
2018-04-27T23:37:43.798Z,99.90
2018-04-27T23:40:16.646Z,99.90
2018-04-27T23:42:46.713Z,99.90
2018-04-27T23:45:14.827Z,99.90
2018-04-27T23:47:43.408Z,99.90
2018-04-27T23:50:20.297Z,99.90
2018-04-27T23:52:49.535Z,99.90
2018-04-27T23:58:22.697Z,99.90
